sensor_id;sensor_type;location;lat;lon;timestamp;P1;durP1;ratioP1;P2;durP2;ratioP2
5133;SDS011;2585;48.696;10.066;2023-11-21T00:02:26;7.10;;;2.63;;
5133;SDS011;2585;48.696;10.066;2023-11-21T00:04:56;8.00;;;1.90;;
5133;SDS011;2585;48.696;10.066;2023-11-21T00:07:22;7.93;;;2.37;;
5133;SDS011;2585;48.696;10.066;2023-11-21T00:09:49;1.50;;;1.40;;
5133;SDS011;2585;48.696;10.066;2023-11-21T00:12:17;3.70;;;1.70;;
5133;SDS011;2585;48.696;10.066;2023-11-21T00:14:44;3.67;;;2.03;;
5133;SDS011;2585;48.696;10.066;2023-11-21T00:17:11;4.80;;;2.23;;
5133;SDS011;2585;48.696;10.066;2023-11-21T00:19:38;3.90;;;2.07;;
5133;SDS011;2585;48.696;10.066;2023-11-21T00:22:05;6.10;;;2.03;;
5133;SDS011;2585;48.696;10.066;2023-11-21T00:24:33;6.37;;;2.20;;
5133;SDS011;2585;48.696;10.066;2023-11-21T00:27:00;6.93;;;2.43;;
5133;SDS011;2585;48.696;10.066;2023-11-21T00:29:27;9.77;;;2.83;;
5133;SDS011;2585;48.696;10.066;2023-11-21T00:31:54;5.87;;;2.50;;
5133;SDS011;2585;48.696;10.066;2023-11-21T00:34:21;15.03;;;2.37;;
5133;SDS011;2585;48.696;10.066;2023-11-21T00:36:48;6.70;;;2.70;;
5133;SDS011;2585;48.696;10.066;2023-11-21T00:39:14;6.47;;;3.33;;
5133;SDS011;2585;48.696;10.066;2023-11-21T00:41:41;7.70;;;2.70;;
5133;SDS011;2585;48.696;10.066;2023-11-21T00:44:08;6.80;;;3.17;;
5133;SDS011;2585;48.696;10.066;2023-11-21T00:46:36;13.60;;;4.97;;
5133;SDS011;2585;48.696;10.066;2023-11-21T00:49:03;9.30;;;5.17;;
5133;SDS011;2585;48.696;10.066;2023-11-21T00:51:33;4.60;;;3.30;;
5133;SDS011;2585;48.696;10.066;2023-11-21T00:54:00;9.13;;;4.47;;
5133;SDS011;2585;48.696;10.066;2023-11-21T00:56:27;8.60;;;3.60;;
5133;SDS011;2585;48.696;10.066;2023-11-21T00:58:54;4.70;;;2.93;;
5133;SDS011;2585;48.696;10.066;2023-11-21T01:01:21;7.83;;;3.00;;
5133;SDS011;2585;48.696;10.066;2023-11-21T01:03:49;8.17;;;2.70;;
5133;SDS011;2585;48.696;10.066;2023-11-21T01:06:17;4.83;;;2.77;;
5133;SDS011;2585;48.696;10.066;2023-11-21T01:08:44;8.83;;;2.57;;
5133;SDS011;2585;48.696;10.066;2023-11-21T01:11:11;10.47;;;3.10;;
5133;SDS011;2585;48.696;10.066;2023-11-21T01:13:41;9.50;;;3.40;;
5133;SDS011;2585;48.696;10.066;2023-11-21T01:16:08;4.07;;;2.07;;
5133;SDS011;2585;48.696;10.066;2023-11-21T01:18:36;4.90;;;2.60;;
5133;SDS011;2585;48.696;10.066;2023-11-21T01:21:03;7.63;;;2.43;;
5133;SDS011;2585;48.696;10.066;2023-11-21T01:23:30;10.90;;;3.30;;
5133;SDS011;2585;48.696;10.066;2023-11-21T01:25:57;6.37;;;2.17;;
5133;SDS011;2585;48.696;10.066;2023-11-21T01:28:24;4.97;;;2.43;;
5133;SDS011;2585;48.696;10.066;2023-11-21T01:30:51;3.50;;;2.30;;
5133;SDS011;2585;48.696;10.066;2023-11-21T01:33:18;4.60;;;2.03;;
5133;SDS011;2585;48.696;10.066;2023-11-21T01:35:45;7.40;;;2.20;;
5133;SDS011;2585;48.696;10.066;2023-11-21T01:38:13;8.87;;;2.93;;
5133;SDS011;2585;48.696;10.066;2023-11-21T01:40:41;9.37;;;2.93;;
5133;SDS011;2585;48.696;10.066;2023-11-21T01:43:08;6.17;;;2.03;;
5133;SDS011;2585;48.696;10.066;2023-11-21T01:45:35;4.40;;;2.20;;
5133;SDS011;2585;48.696;10.066;2023-11-21T01:48:02;9.07;;;2.97;;
5133;SDS011;2585;48.696;10.066;2023-11-21T01:50:30;7.00;;;2.47;;
5133;SDS011;2585;48.696;10.066;2023-11-21T01:52:57;5.73;;;2.47;;
5133;SDS011;2585;48.696;10.066;2023-11-21T01:55:24;6.07;;;1.87;;
5133;SDS011;2585;48.696;10.066;2023-11-21T01:57:54;5.57;;;2.50;;
5133;SDS011;2585;48.696;10.066;2023-11-21T02:00:24;6.17;;;2.10;;
5133;SDS011;2585;48.696;10.066;2023-11-21T02:02:51;5.60;;;1.90;;
5133;SDS011;2585;48.696;10.066;2023-11-21T02:05:19;2.80;;;1.87;;
5133;SDS011;2585;48.696;10.066;2023-11-21T02:07:47;5.50;;;2.20;;
5133;SDS011;2585;48.696;10.066;2023-11-21T02:10:15;9.27;;;1.80;;
5133;SDS011;2585;48.696;10.066;2023-11-21T02:12:43;3.00;;;2.10;;
5133;SDS011;2585;48.696;10.066;2023-11-21T02:15:12;6.20;;;2.00;;
5133;SDS011;2585;48.696;10.066;2023-11-21T02:17:52;6.27;;;2.40;;
5133;SDS011;2585;48.696;10.066;2023-11-21T02:20:21;4.60;;;1.83;;
5133;SDS011;2585;48.696;10.066;2023-11-21T02:22:52;4.33;;;2.27;;
5133;SDS011;2585;48.696;10.066;2023-11-21T02:27:55;8.63;;;2.33;;
5133;SDS011;2585;48.696;10.066;2023-11-21T02:30:23;3.60;;;2.03;;
5133;SDS011;2585;48.696;10.066;2023-11-21T02:32:51;6.43;;;2.30;;
5133;SDS011;2585;48.696;10.066;2023-11-21T02:35:23;5.90;;;2.37;;
5133;SDS011;2585;48.696;10.066;2023-11-21T02:37:52;3.30;;;1.80;;
5133;SDS011;2585;48.696;10.066;2023-11-21T02:40:20;3.53;;;2.20;;
5133;SDS011;2585;48.696;10.066;2023-11-21T02:42:47;4.63;;;2.50;;
5133;SDS011;2585;48.696;10.066;2023-11-21T02:45:14;7.03;;;2.77;;
5133;SDS011;2585;48.696;10.066;2023-11-21T02:47:45;5.53;;;2.13;;
5133;SDS011;2585;48.696;10.066;2023-11-21T02:50:12;4.13;;;1.90;;
5133;SDS011;2585;48.696;10.066;2023-11-21T02:52:39;10.03;;;3.00;;
5133;SDS011;2585;48.696;10.066;2023-11-21T02:55:09;6.40;;;2.40;;
5133;SDS011;2585;48.696;10.066;2023-11-21T02:57:36;3.83;;;2.00;;
5133;SDS011;2585;48.696;10.066;2023-11-21T03:00:03;5.07;;;2.03;;
5133;SDS011;2585;48.696;10.066;2023-11-21T03:02:34;7.20;;;2.40;;
5133;SDS011;2585;48.696;10.066;2023-11-21T03:05:06;7.00;;;2.00;;
5133;SDS011;2585;48.696;10.066;2023-11-21T03:07:38;8.93;;;2.10;;
5133;SDS011;2585;48.696;10.066;2023-11-21T03:10:06;10.87;;;2.20;;
5133;SDS011;2585;48.696;10.066;2023-11-21T03:12:38;6.23;;;2.50;;
5133;SDS011;2585;48.696;10.066;2023-11-21T03:15:05;5.87;;;2.77;;
5133;SDS011;2585;48.696;10.066;2023-11-21T03:17:33;5.13;;;2.50;;
5133;SDS011;2585;48.696;10.066;2023-11-21T03:20:00;5.40;;;2.13;;
5133;SDS011;2585;48.696;10.066;2023-11-21T03:22:27;5.17;;;2.20;;
5133;SDS011;2585;48.696;10.066;2023-11-21T03:24:54;5.60;;;1.90;;
5133;SDS011;2585;48.696;10.066;2023-11-21T03:27:20;3.53;;;1.67;;
5133;SDS011;2585;48.696;10.066;2023-11-21T03:29:48;3.67;;;1.87;;
5133;SDS011;2585;48.696;10.066;2023-11-21T03:32:15;5.03;;;2.23;;
5133;SDS011;2585;48.696;10.066;2023-11-21T03:35:16;11.17;;;1.80;;
5133;SDS011;2585;48.696;10.066;2023-11-21T03:37:36;6.57;;;1.90;;
5133;SDS011;2585;48.696;10.066;2023-11-21T03:40:05;5.47;;;2.40;;
5133;SDS011;2585;48.696;10.066;2023-11-21T03:42:34;7.10;;;2.90;;
5133;SDS011;2585;48.696;10.066;2023-11-21T03:45:01;4.23;;;1.90;;
5133;SDS011;2585;48.696;10.066;2023-11-21T03:47:30;4.63;;;1.70;;
5133;SDS011;2585;48.696;10.066;2023-11-21T03:49:57;6.20;;;1.73;;
5133;SDS011;2585;48.696;10.066;2023-11-21T03:52:24;9.90;;;2.57;;
5133;SDS011;2585;48.696;10.066;2023-11-21T03:54:51;6.73;;;2.63;;
5133;SDS011;2585;48.696;10.066;2023-11-21T03:57:18;7.43;;;1.83;;
5133;SDS011;2585;48.696;10.066;2023-11-21T03:59:45;7.60;;;2.60;;
5133;SDS011;2585;48.696;10.066;2023-11-21T04:02:11;5.50;;;2.43;;
5133;SDS011;2585;48.696;10.066;2023-11-21T04:04:38;4.30;;;2.10;;
5133;SDS011;2585;48.696;10.066;2023-11-21T04:07:05;5.40;;;2.37;;
5133;SDS011;2585;48.696;10.066;2023-11-21T04:09:32;9.60;;;2.33;;
5133;SDS011;2585;48.696;10.066;2023-11-21T04:11:59;6.67;;;3.30;;
5133;SDS011;2585;48.696;10.066;2023-11-21T04:14:26;5.23;;;2.60;;
5133;SDS011;2585;48.696;10.066;2023-11-21T04:16:53;5.83;;;1.90;;
5133;SDS011;2585;48.696;10.066;2023-11-21T04:19:20;4.50;;;1.93;;
5133;SDS011;2585;48.696;10.066;2023-11-21T04:21:47;7.53;;;2.27;;
5133;SDS011;2585;48.696;10.066;2023-11-21T04:24:14;3.00;;;1.87;;
5133;SDS011;2585;48.696;10.066;2023-11-21T04:26:41;4.97;;;1.80;;
5133;SDS011;2585;48.696;10.066;2023-11-21T04:29:08;5.53;;;2.03;;
5133;SDS011;2585;48.696;10.066;2023-11-21T04:31:34;10.00;;;2.27;;
5133;SDS011;2585;48.696;10.066;2023-11-21T04:34:01;2.93;;;1.80;;
5133;SDS011;2585;48.696;10.066;2023-11-21T04:36:30;7.50;;;2.50;;
5133;SDS011;2585;48.696;10.066;2023-11-21T04:38:57;3.63;;;2.13;;
5133;SDS011;2585;48.696;10.066;2023-11-21T04:41:24;3.60;;;2.40;;
5133;SDS011;2585;48.696;10.066;2023-11-21T04:43:51;2.63;;;2.10;;
5133;SDS011;2585;48.696;10.066;2023-11-21T04:46:18;4.93;;;2.43;;
5133;SDS011;2585;48.696;10.066;2023-11-21T04:48:45;5.93;;;2.80;;
5133;SDS011;2585;48.696;10.066;2023-11-21T04:51:12;2.87;;;1.73;;
5133;SDS011;2585;48.696;10.066;2023-11-21T04:53:39;5.67;;;1.83;;
5133;SDS011;2585;48.696;10.066;2023-11-21T04:56:05;5.57;;;1.83;;
5133;SDS011;2585;48.696;10.066;2023-11-21T04:58:33;8.73;;;1.90;;
5133;SDS011;2585;48.696;10.066;2023-11-21T05:00:59;6.00;;;2.00;;
5133;SDS011;2585;48.696;10.066;2023-11-21T05:03:27;6.73;;;2.03;;
5133;SDS011;2585;48.696;10.066;2023-11-21T05:05:56;5.03;;;1.50;;
5133;SDS011;2585;48.696;10.066;2023-11-21T05:08:23;6.47;;;1.80;;
5133;SDS011;2585;48.696;10.066;2023-11-21T05:10:49;6.13;;;2.00;;
5133;SDS011;2585;48.696;10.066;2023-11-21T05:13:18;5.00;;;1.63;;
5133;SDS011;2585;48.696;10.066;2023-11-21T05:15:46;6.30;;;1.57;;
5133;SDS011;2585;48.696;10.066;2023-11-21T05:18:13;3.67;;;1.80;;
5133;SDS011;2585;48.696;10.066;2023-11-21T05:20:42;5.67;;;2.80;;
5133;SDS011;2585;48.696;10.066;2023-11-21T05:23:09;3.10;;;2.10;;
5133;SDS011;2585;48.696;10.066;2023-11-21T05:25:36;5.00;;;2.00;;
5133;SDS011;2585;48.696;10.066;2023-11-21T05:28:06;5.70;;;3.10;;
5133;SDS011;2585;48.696;10.066;2023-11-21T05:30:33;6.63;;;3.60;;
5133;SDS011;2585;48.696;10.066;2023-11-21T05:33:00;3.83;;;2.77;;
5133;SDS011;2585;48.696;10.066;2023-11-21T05:35:27;2.40;;;2.20;;
5133;SDS011;2585;48.696;10.066;2023-11-21T05:37:53;3.27;;;2.03;;
5133;SDS011;2585;48.696;10.066;2023-11-21T05:40:20;7.03;;;2.30;;
5133;SDS011;2585;48.696;10.066;2023-11-21T05:42:49;5.20;;;2.13;;
5133;SDS011;2585;48.696;10.066;2023-11-21T05:45:17;3.30;;;2.00;;
5133;SDS011;2585;48.696;10.066;2023-11-21T05:47:45;3.53;;;1.77;;
5133;SDS011;2585;48.696;10.066;2023-11-21T05:50:14;3.00;;;2.10;;
5133;SDS011;2585;48.696;10.066;2023-11-21T05:52:45;3.10;;;1.93;;
5133;SDS011;2585;48.696;10.066;2023-11-21T05:55:14;2.83;;;1.73;;
5133;SDS011;2585;48.696;10.066;2023-11-21T05:57:41;2.73;;;1.80;;
5133;SDS011;2585;48.696;10.066;2023-11-21T06:00:10;4.90;;;2.30;;
5133;SDS011;2585;48.696;10.066;2023-11-21T06:02:45;5.70;;;2.30;;
5133;SDS011;2585;48.696;10.066;2023-11-21T06:05:13;3.67;;;1.73;;
5133;SDS011;2585;48.696;10.066;2023-11-21T06:07:40;4.63;;;2.10;;
5133;SDS011;2585;48.696;10.066;2023-11-21T06:10:07;6.07;;;2.13;;
5133;SDS011;2585;48.696;10.066;2023-11-21T06:12:36;4.60;;;1.80;;
5133;SDS011;2585;48.696;10.066;2023-11-21T06:15:04;2.30;;;1.70;;
5133;SDS011;2585;48.696;10.066;2023-11-21T06:17:33;6.90;;;2.33;;
5133;SDS011;2585;48.696;10.066;2023-11-21T06:20:06;8.97;;;1.90;;
5133;SDS011;2585;48.696;10.066;2023-11-21T06:22:42;3.13;;;1.77;;
5133;SDS011;2585;48.696;10.066;2023-11-21T06:25:10;9.83;;;2.03;;
5133;SDS011;2585;48.696;10.066;2023-11-21T06:27:43;3.70;;;1.93;;
5133;SDS011;2585;48.696;10.066;2023-11-21T06:30:11;6.90;;;2.40;;
5133;SDS011;2585;48.696;10.066;2023-11-21T06:32:39;3.97;;;2.50;;
5133;SDS011;2585;48.696;10.066;2023-11-21T06:35:07;5.60;;;2.20;;
5133;SDS011;2585;48.696;10.066;2023-11-21T06:37:37;4.33;;;2.33;;
5133;SDS011;2585;48.696;10.066;2023-11-21T06:40:04;4.57;;;1.77;;
5133;SDS011;2585;48.696;10.066;2023-11-21T06:42:32;5.10;;;2.20;;
5133;SDS011;2585;48.696;10.066;2023-11-21T06:45:04;5.63;;;1.93;;
5133;SDS011;2585;48.696;10.066;2023-11-21T06:47:31;8.90;;;2.13;;
5133;SDS011;2585;48.696;10.066;2023-11-21T06:49:59;7.30;;;2.37;;
5133;SDS011;2585;48.696;10.066;2023-11-21T06:52:27;10.60;;;3.73;;
5133;SDS011;2585;48.696;10.066;2023-11-21T06:54:53;7.90;;;1.87;;
5133;SDS011;2585;48.696;10.066;2023-11-21T06:57:22;4.00;;;2.13;;
5133;SDS011;2585;48.696;10.066;2023-11-21T06:59:49;4.70;;;2.67;;
5133;SDS011;2585;48.696;10.066;2023-11-21T07:02:16;4.73;;;2.90;;
5133;SDS011;2585;48.696;10.066;2023-11-21T07:04:45;6.20;;;3.53;;
5133;SDS011;2585;48.696;10.066;2023-11-21T07:07:12;5.23;;;3.57;;
5133;SDS011;2585;48.696;10.066;2023-11-21T07:09:39;9.47;;;4.37;;
5133;SDS011;2585;48.696;10.066;2023-11-21T07:12:06;7.07;;;3.77;;
5133;SDS011;2585;48.696;10.066;2023-11-21T07:14:34;8.37;;;3.60;;
5133;SDS011;2585;48.696;10.066;2023-11-21T07:17:01;5.10;;;3.10;;
5133;SDS011;2585;48.696;10.066;2023-11-21T07:19:28;6.57;;;2.23;;
5133;SDS011;2585;48.696;10.066;2023-11-21T07:21:55;5.43;;;2.30;;
5133;SDS011;2585;48.696;10.066;2023-11-21T07:24:22;3.40;;;1.90;;
5133;SDS011;2585;48.696;10.066;2023-11-21T07:26:52;4.00;;;1.90;;
5133;SDS011;2585;48.696;10.066;2023-11-21T07:29:23;6.07;;;2.50;;
5133;SDS011;2585;48.696;10.066;2023-11-21T07:31:55;5.83;;;2.90;;
5133;SDS011;2585;48.696;10.066;2023-11-21T07:34:22;4.17;;;2.40;;
5133;SDS011;2585;48.696;10.066;2023-11-21T07:36:49;5.07;;;2.30;;
5133;SDS011;2585;48.696;10.066;2023-11-21T07:39:16;5.10;;;2.17;;
5133;SDS011;2585;48.696;10.066;2023-11-21T07:41:43;5.87;;;1.87;;
5133;SDS011;2585;48.696;10.066;2023-11-21T07:44:15;4.93;;;1.57;;
5133;SDS011;2585;48.696;10.066;2023-11-21T07:46:46;3.43;;;2.03;;
5133;SDS011;2585;48.696;10.066;2023-11-21T07:49:16;2.10;;;1.53;;
5133;SDS011;2585;48.696;10.066;2023-11-21T07:51:46;3.03;;;1.97;;
5133;SDS011;2585;48.696;10.066;2023-11-21T07:54:13;8.10;;;2.00;;
5133;SDS011;2585;48.696;10.066;2023-11-21T07:56:40;3.27;;;2.00;;
5133;SDS011;2585;48.696;10.066;2023-11-21T07:59:07;5.90;;;3.60;;
5133;SDS011;2585;48.696;10.066;2023-11-21T08:01:34;5.20;;;2.53;;
5133;SDS011;2585;48.696;10.066;2023-11-21T08:04:01;9.57;;;4.10;;
5133;SDS011;2585;48.696;10.066;2023-11-21T08:06:30;6.80;;;4.30;;
5133;SDS011;2585;48.696;10.066;2023-11-21T08:08:57;8.23;;;4.83;;
5133;SDS011;2585;48.696;10.066;2023-11-21T08:11:24;8.60;;;3.83;;
5133;SDS011;2585;48.696;10.066;2023-11-21T08:13:52;6.33;;;3.70;;
5133;SDS011;2585;48.696;10.066;2023-11-21T08:16:20;8.07;;;4.10;;
5133;SDS011;2585;48.696;10.066;2023-11-21T08:18:47;12.47;;;3.87;;
5133;SDS011;2585;48.696;10.066;2023-11-21T08:21:14;11.10;;;5.43;;
5133;SDS011;2585;48.696;10.066;2023-11-21T08:23:41;10.10;;;5.50;;
5133;SDS011;2585;48.696;10.066;2023-11-21T08:26:08;9.83;;;4.90;;
5133;SDS011;2585;48.696;10.066;2023-11-21T08:28:35;12.27;;;5.47;;
5133;SDS011;2585;48.696;10.066;2023-11-21T08:31:02;8.50;;;3.63;;
5133;SDS011;2585;48.696;10.066;2023-11-21T08:33:30;6.23;;;3.50;;
5133;SDS011;2585;48.696;10.066;2023-11-21T08:35:57;8.30;;;3.23;;
5133;SDS011;2585;48.696;10.066;2023-11-21T08:38:24;7.30;;;3.27;;
5133;SDS011;2585;48.696;10.066;2023-11-21T08:40:50;6.13;;;2.80;;
5133;SDS011;2585;48.696;10.066;2023-11-21T08:43:17;4.40;;;2.97;;
5133;SDS011;2585;48.696;10.066;2023-11-21T08:45:46;4.70;;;2.90;;
5133;SDS011;2585;48.696;10.066;2023-11-21T08:48:13;4.70;;;3.60;;
5133;SDS011;2585;48.696;10.066;2023-11-21T08:50:40;4.27;;;2.37;;
5133;SDS011;2585;48.696;10.066;2023-11-21T08:53:07;7.60;;;2.43;;
5133;SDS011;2585;48.696;10.066;2023-11-21T08:55:34;7.23;;;3.23;;
5133;SDS011;2585;48.696;10.066;2023-11-21T08:58:17;3.20;;;2.30;;
5133;SDS011;2585;48.696;10.066;2023-11-21T09:00:45;5.27;;;3.00;;
5133;SDS011;2585;48.696;10.066;2023-11-21T09:03:12;4.80;;;2.67;;
5133;SDS011;2585;48.696;10.066;2023-11-21T09:05:39;4.17;;;2.63;;
5133;SDS011;2585;48.696;10.066;2023-11-21T09:08:06;5.90;;;2.43;;
5133;SDS011;2585;48.696;10.066;2023-11-21T09:10:34;8.80;;;2.50;;
5133;SDS011;2585;48.696;10.066;2023-11-21T09:13:03;4.50;;;2.80;;
5133;SDS011;2585;48.696;10.066;2023-11-21T09:15:29;3.37;;;2.13;;
5133;SDS011;2585;48.696;10.066;2023-11-21T09:17:56;5.20;;;2.50;;
5133;SDS011;2585;48.696;10.066;2023-11-21T09:20:23;4.83;;;2.50;;
5133;SDS011;2585;48.696;10.066;2023-11-21T09:22:50;8.47;;;2.87;;
5133;SDS011;2585;48.696;10.066;2023-11-21T09:25:17;3.17;;;2.60;;
5133;SDS011;2585;48.696;10.066;2023-11-21T09:27:45;7.87;;;2.90;;
5133;SDS011;2585;48.696;10.066;2023-11-21T09:30:12;8.90;;;4.40;;
5133;SDS011;2585;48.696;10.066;2023-11-21T09:32:40;12.73;;;7.63;;
5133;SDS011;2585;48.696;10.066;2023-11-21T09:35:07;13.07;;;7.63;;
5133;SDS011;2585;48.696;10.066;2023-11-21T09:37:35;10.17;;;5.97;;
5133;SDS011;2585;48.696;10.066;2023-11-21T09:40:02;4.80;;;3.53;;
5133;SDS011;2585;48.696;10.066;2023-11-21T09:42:37;7.17;;;3.53;;
5133;SDS011;2585;48.696;10.066;2023-11-21T09:47:42;5.17;;;2.33;;
5133;SDS011;2585;48.696;10.066;2023-11-21T09:50:09;3.23;;;1.90;;
5133;SDS011;2585;48.696;10.066;2023-11-21T09:52:44;3.23;;;2.20;;
5133;SDS011;2585;48.696;10.066;2023-11-21T09:55:15;3.13;;;2.23;;
5133;SDS011;2585;48.696;10.066;2023-11-21T09:57:45;10.90;;;2.77;;
5133;SDS011;2585;48.696;10.066;2023-11-21T10:00:12;3.90;;;2.77;;
5133;SDS011;2585;48.696;10.066;2023-11-21T10:02:41;3.87;;;2.50;;
5133;SDS011;2585;48.696;10.066;2023-11-21T10:05:08;3.33;;;1.77;;
5133;SDS011;2585;48.696;10.066;2023-11-21T10:07:39;1.70;;;1.60;;
5133;SDS011;2585;48.696;10.066;2023-11-21T10:10:07;2.10;;;1.50;;
5133;SDS011;2585;48.696;10.066;2023-11-21T10:12:35;1.53;;;1.37;;
5133;SDS011;2585;48.696;10.066;2023-11-21T10:15:03;1.40;;;1.30;;
5133;SDS011;2585;48.696;10.066;2023-11-21T10:17:35;1.20;;;1.10;;
5133;SDS011;2585;48.696;10.066;2023-11-21T10:20:10;1.57;;;1.40;;
5133;SDS011;2585;48.696;10.066;2023-11-21T10:22:39;1.50;;;1.30;;
5133;SDS011;2585;48.696;10.066;2023-11-21T10:25:11;2.60;;;1.57;;
5133;SDS011;2585;48.696;10.066;2023-11-21T10:27:41;1.93;;;1.40;;
5133;SDS011;2585;48.696;10.066;2023-11-21T10:30:09;2.30;;;1.30;;
5133;SDS011;2585;48.696;10.066;2023-11-21T10:32:42;1.83;;;1.60;;
5133;SDS011;2585;48.696;10.066;2023-11-21T10:35:09;2.53;;;1.83;;
5133;SDS011;2585;48.696;10.066;2023-11-21T10:37:37;1.43;;;1.33;;
5133;SDS011;2585;48.696;10.066;2023-11-21T10:40:08;2.43;;;1.50;;
5133;SDS011;2585;48.696;10.066;2023-11-21T10:42:39;1.40;;;1.30;;
5133;SDS011;2585;48.696;10.066;2023-11-21T10:45:07;1.40;;;1.30;;
5133;SDS011;2585;48.696;10.066;2023-11-21T10:47:44;2.60;;;1.60;;
5133;SDS011;2585;48.696;10.066;2023-11-21T10:50:11;2.20;;;1.53;;
5133;SDS011;2585;48.696;10.066;2023-11-21T10:52:41;5.13;;;1.37;;
5133;SDS011;2585;48.696;10.066;2023-11-21T10:55:19;2.50;;;1.70;;
5133;SDS011;2585;48.696;10.066;2023-11-21T10:57:48;3.43;;;1.33;;
5133;SDS011;2585;48.696;10.066;2023-11-21T11:00:18;1.77;;;1.40;;
5133;SDS011;2585;48.696;10.066;2023-11-21T11:02:51;2.03;;;1.20;;
5133;SDS011;2585;48.696;10.066;2023-11-21T11:05:21;2.00;;;1.40;;
5133;SDS011;2585;48.696;10.066;2023-11-21T11:07:50;2.23;;;1.40;;
5133;SDS011;2585;48.696;10.066;2023-11-21T11:10:34;1.37;;;1.20;;
5133;SDS011;2585;48.696;10.066;2023-11-21T11:13:01;1.40;;;1.23;;
5133;SDS011;2585;48.696;10.066;2023-11-21T11:15:28;1.50;;;1.27;;
5133;SDS011;2585;48.696;10.066;2023-11-21T11:17:55;2.80;;;1.20;;
5133;SDS011;2585;48.696;10.066;2023-11-21T11:20:27;1.57;;;1.30;;
5133;SDS011;2585;48.696;10.066;2023-11-21T11:29:14;1.20;;;1.10;;
5133;SDS011;2585;48.696;10.066;2023-11-21T11:31:54;2.93;;;1.30;;
5133;SDS011;2585;48.696;10.066;2023-11-21T11:37:30;1.67;;;1.33;;
5133;SDS011;2585;48.696;10.066;2023-11-21T11:39:57;1.80;;;1.13;;
5133;SDS011;2585;48.696;10.066;2023-11-21T11:42:26;2.17;;;1.23;;
5133;SDS011;2585;48.696;10.066;2023-11-21T11:44:53;2.60;;;1.10;;
5133;SDS011;2585;48.696;10.066;2023-11-21T11:47:27;2.30;;;1.40;;
5133;SDS011;2585;48.696;10.066;2023-11-21T11:52:45;2.53;;;1.97;;
5133;SDS011;2585;48.696;10.066;2023-11-21T11:55:14;2.23;;;1.30;;
5133;SDS011;2585;48.696;10.066;2023-11-21T11:57:45;1.30;;;1.20;;
5133;SDS011;2585;48.696;10.066;2023-11-21T12:00:15;3.67;;;1.40;;
5133;SDS011;2585;48.696;10.066;2023-11-21T12:02:52;2.33;;;1.20;;
5133;SDS011;2585;48.696;10.066;2023-11-21T12:05:23;2.03;;;1.30;;
5133;SDS011;2585;48.696;10.066;2023-11-21T12:07:54;4.83;;;1.43;;
5133;SDS011;2585;48.696;10.066;2023-11-21T12:10:24;1.63;;;1.10;;
5133;SDS011;2585;48.696;10.066;2023-11-21T12:12:53;1.30;;;1.20;;
5133;SDS011;2585;48.696;10.066;2023-11-21T12:15:28;2.83;;;1.03;;
5133;SDS011;2585;48.696;10.066;2023-11-21T12:17:57;2.90;;;1.53;;
5133;SDS011;2585;48.696;10.066;2023-11-21T12:20:27;1.23;;;1.13;;
5133;SDS011;2585;48.696;10.066;2023-11-21T12:22:55;2.00;;;1.70;;
5133;SDS011;2585;48.696;10.066;2023-11-21T12:25:26;1.47;;;1.33;;
5133;SDS011;2585;48.696;10.066;2023-11-21T12:28:01;1.60;;;1.20;;
5133;SDS011;2585;48.696;10.066;2023-11-21T12:30:30;1.30;;;1.20;;
5133;SDS011;2585;48.696;10.066;2023-11-21T12:32:58;1.83;;;1.10;;
5133;SDS011;2585;48.696;10.066;2023-11-21T12:35:28;1.40;;;1.10;;
5133;SDS011;2585;48.696;10.066;2023-11-21T12:37:56;1.20;;;1.10;;
5133;SDS011;2585;48.696;10.066;2023-11-21T12:40:24;1.63;;;1.03;;
5133;SDS011;2585;48.696;10.066;2023-11-21T12:42:52;2.70;;;1.10;;
5133;SDS011;2585;48.696;10.066;2023-11-21T12:45:21;1.37;;;1.20;;
5133;SDS011;2585;48.696;10.066;2023-11-21T12:47:53;1.20;;;1.10;;
5133;SDS011;2585;48.696;10.066;2023-11-21T12:50:22;2.03;;;1.27;;
5133;SDS011;2585;48.696;10.066;2023-11-21T12:52:50;1.10;;;1.00;;
5133;SDS011;2585;48.696;10.066;2023-11-21T12:55:20;2.80;;;1.03;;
5133;SDS011;2585;48.696;10.066;2023-11-21T12:57:49;1.10;;;0.93;;
5133;SDS011;2585;48.696;10.066;2023-11-21T13:00:18;1.50;;;1.10;;
5133;SDS011;2585;48.696;10.066;2023-11-21T13:02:56;1.27;;;1.17;;
5133;SDS011;2585;48.696;10.066;2023-11-21T13:05:26;1.87;;;1.07;;
5133;SDS011;2585;48.696;10.066;2023-11-21T13:08:00;1.13;;;1.03;;
5133;SDS011;2585;48.696;10.066;2023-11-21T13:10:30;2.10;;;1.20;;
5133;SDS011;2585;48.696;10.066;2023-11-21T13:12:58;1.83;;;1.00;;
5133;SDS011;2585;48.696;10.066;2023-11-21T13:15:27;1.57;;;1.10;;
5133;SDS011;2585;48.696;10.066;2023-11-21T13:17:54;1.20;;;1.10;;
5133;SDS011;2585;48.696;10.066;2023-11-21T13:20:24;1.10;;;1.00;;
5133;SDS011;2585;48.696;10.066;2023-11-21T13:22:52;1.50;;;1.30;;
5133;SDS011;2585;48.696;10.066;2023-11-21T13:25:21;1.40;;;1.30;;
5133;SDS011;2585;48.696;10.066;2023-11-21T13:27:48;1.50;;;1.20;;
5133;SDS011;2585;48.696;10.066;2023-11-21T13:30:15;1.37;;;1.27;;
5133;SDS011;2585;48.696;10.066;2023-11-21T13:32:43;4.37;;;1.70;;
5133;SDS011;2585;48.696;10.066;2023-11-21T13:35:17;1.70;;;1.33;;
5133;SDS011;2585;48.696;10.066;2023-11-21T13:37:57;2.40;;;1.30;;
5133;SDS011;2585;48.696;10.066;2023-11-21T13:40:29;1.10;;;1.00;;
5133;SDS011;2585;48.696;10.066;2023-11-21T13:42:55;1.80;;;1.40;;
5133;SDS011;2585;48.696;10.066;2023-11-21T13:45:25;1.37;;;1.10;;
5133;SDS011;2585;48.696;10.066;2023-11-21T13:47:54;1.77;;;1.50;;
5133;SDS011;2585;48.696;10.066;2023-11-21T13:50:26;1.73;;;1.40;;
5133;SDS011;2585;48.696;10.066;2023-11-21T13:52:59;1.63;;;1.40;;
5133;SDS011;2585;48.696;10.066;2023-11-21T13:55:36;6.67;;;1.40;;
5133;SDS011;2585;48.696;10.066;2023-11-21T13:58:06;2.90;;;1.60;;
5133;SDS011;2585;48.696;10.066;2023-11-21T14:00:36;1.33;;;1.23;;
5133;SDS011;2585;48.696;10.066;2023-11-21T14:03:11;3.30;;;1.50;;
5133;SDS011;2585;48.696;10.066;2023-11-21T14:05:48;2.50;;;1.70;;
5133;SDS011;2585;48.696;10.066;2023-11-21T14:08:20;1.30;;;1.20;;
5133;SDS011;2585;48.696;10.066;2023-11-21T14:10:49;1.30;;;1.10;;
5133;SDS011;2585;48.696;10.066;2023-11-21T14:13:21;1.70;;;1.30;;
5133;SDS011;2585;48.696;10.066;2023-11-21T14:15:49;3.00;;;1.53;;
5133;SDS011;2585;48.696;10.066;2023-11-21T14:18:23;1.77;;;1.33;;
5133;SDS011;2585;48.696;10.066;2023-11-21T14:21:04;2.83;;;1.23;;
5133;SDS011;2585;48.696;10.066;2023-11-21T14:23:36;1.10;;;1.00;;
5133;SDS011;2585;48.696;10.066;2023-11-21T14:26:04;1.13;;;1.03;;
5133;SDS011;2585;48.696;10.066;2023-11-21T14:28:33;1.10;;;1.00;;
5133;SDS011;2585;48.696;10.066;2023-11-21T14:31:01;1.00;;;0.90;;
5133;SDS011;2585;48.696;10.066;2023-11-21T14:33:29;1.63;;;0.90;;
5133;SDS011;2585;48.696;10.066;2023-11-21T14:35:56;2.07;;;1.80;;
5133;SDS011;2585;48.696;10.066;2023-11-21T14:38:23;3.00;;;2.10;;
5133;SDS011;2585;48.696;10.066;2023-11-21T14:40:50;10.43;;;5.83;;
5133;SDS011;2585;48.696;10.066;2023-11-21T14:43:17;5.20;;;3.43;;
5133;SDS011;2585;48.696;10.066;2023-11-21T14:45:45;1.93;;;1.83;;
5133;SDS011;2585;48.696;10.066;2023-11-21T14:48:12;1.60;;;1.20;;
5133;SDS011;2585;48.696;10.066;2023-11-21T14:50:57;1.20;;;1.10;;
5133;SDS011;2585;48.696;10.066;2023-11-21T14:53:30;1.30;;;1.03;;
5133;SDS011;2585;48.696;10.066;2023-11-21T14:56:10;1.00;;;0.90;;
5133;SDS011;2585;48.696;10.066;2023-11-21T14:58:37;1.53;;;1.13;;
5133;SDS011;2585;48.696;10.066;2023-11-21T15:01:05;1.00;;;0.90;;
5133;SDS011;2585;48.696;10.066;2023-11-21T15:03:34;1.07;;;0.93;;
5133;SDS011;2585;48.696;10.066;2023-11-21T15:06:10;1.00;;;0.90;;
5133;SDS011;2585;48.696;10.066;2023-11-21T15:08:57;0.87;;;0.87;;
5133;SDS011;2585;48.696;10.066;2023-11-21T15:11:33;2.37;;;0.83;;
5133;SDS011;2585;48.696;10.066;2023-11-21T15:14:05;1.30;;;1.00;;
5133;SDS011;2585;48.696;10.066;2023-11-21T15:16:37;0.90;;;0.90;;
5133;SDS011;2585;48.696;10.066;2023-11-21T15:19:07;1.00;;;0.90;;
5133;SDS011;2585;48.696;10.066;2023-11-21T15:21:36;4.00;;;0.90;;
5133;SDS011;2585;48.696;10.066;2023-11-21T15:24:03;1.00;;;0.90;;
5133;SDS011;2585;48.696;10.066;2023-11-21T15:26:30;1.33;;;0.90;;
5133;SDS011;2585;48.696;10.066;2023-11-21T15:28:57;0.80;;;0.80;;